createdAt,value
2022-08-17T00:00:43.701Z,97072.75
2022-08-17T00:03:11.275Z,97058.31
2022-08-17T00:05:44.835Z,97066.28
2022-08-17T00:08:15.359Z,97062.78
2022-08-17T00:10:45.570Z,97064.88
2022-08-17T00:13:25.777Z,97055.59
2022-08-17T00:15:58.700Z,97071.41
2022-08-17T00:19:00.936Z,97064.84
2022-08-17T00:21:23.794Z,97065.53
2022-08-17T00:23:54.199Z,97061.41
2022-08-17T00:26:43.998Z,97064.56
2022-08-17T00:29:19.957Z,97058.19
2022-08-17T00:31:48.981Z,97058.88
2022-08-17T00:34:17.879Z,97053.94
2022-08-17T00:36:46.375Z,97056.06
2022-08-17T00:39:14.712Z,97064.63
2022-08-17T00:41:43.312Z,97059.88
2022-08-17T00:44:13.217Z,97052.25
2022-08-17T00:46:44.394Z,97059.09
2022-08-17T00:49:14.334Z,97043.88
2022-08-17T00:51:47.715Z,97049.50
2022-08-17T00:54:22.543Z,97051.81
2022-08-17T00:56:55.577Z,97052.25
2022-08-17T00:59:33.555Z,97059.72
2022-08-17T01:02:02.773Z,97055.03
2022-08-17T01:04:32.877Z,97056.91
2022-08-17T01:07:03.328Z,97054.44
2022-08-17T01:09:33.131Z,97053.00
2022-08-17T01:12:01.856Z,97050.75
2022-08-17T01:14:31.627Z,97047.50
2022-08-17T01:17:00.301Z,97048.16
2022-08-17T01:19:34.296Z,97047.78
2022-08-17T01:22:08.966Z,97046.59
2022-08-17T01:24:41.587Z,97049.13
2022-08-17T01:27:11.062Z,97050.19
2022-08-17T01:29:42.849Z,97049.00
2022-08-17T01:32:11.988Z,97052.94
2022-08-17T01:34:43.787Z,97053.38
2022-08-17T01:37:20.843Z,97047.84
2022-08-17T01:39:55.701Z,97048.28
2022-08-17T01:42:38.180Z,97059.72
2022-08-17T01:45:11.613Z,97058.25
2022-08-17T01:47:41.761Z,97062.00
2022-08-17T01:50:16.390Z,97058.94
2022-08-17T01:52:47.129Z,97057.06
2022-08-17T01:55:20.861Z,97049.44
2022-08-17T01:57:51.843Z,97058.34
2022-08-17T02:00:20.327Z,97058.78
2022-08-17T02:02:48.869Z,97051.16
2022-08-17T02:05:18.393Z,97054.31
2022-08-17T02:07:59.581Z,97060.94
2022-08-17T02:10:33.876Z,97059.13
2022-08-17T02:13:03.121Z,97046.94
2022-08-17T02:15:32.046Z,97054.22
2022-08-17T02:18:00.707Z,97044.91
2022-08-17T02:20:41.809Z,97048.66
2022-08-17T02:23:13.457Z,97047.47
2022-08-17T02:25:45.162Z,97038.16
2022-08-17T02:28:13.666Z,97033.84
2022-08-17T02:31:00.094Z,97031.81
2022-08-17T02:33:42.110Z,97031.41
2022-08-17T02:36:13.942Z,97036.44
2022-08-17T02:38:43.392Z,97038.28
2022-08-17T02:41:13.431Z,97038.50
2022-08-17T02:43:41.946Z,97043.25
2022-08-17T02:46:12.629Z,97037.31
2022-08-17T02:48:41.035Z,97036.91
2022-08-17T02:51:09.484Z,97034.84
2022-08-17T02:53:37.832Z,97031.75
2022-08-17T02:56:06.448Z,97026.59
2022-08-17T02:58:36.340Z,97023.31
2022-08-17T03:01:06.465Z,97023.53
2022-08-17T03:03:35.580Z,97022.34
2022-08-17T03:06:05.278Z,97020.09
2022-08-17T03:08:33.570Z,97019.47
2022-08-17T03:11:01.904Z,97023.41
2022-08-17T03:13:30.875Z,97015.78
2022-08-17T03:16:00.732Z,97014.34
2022-08-17T03:18:29.266Z,97011.06
2022-08-17T03:21:01.230Z,97015.81
2022-08-17T03:23:31.118Z,97011.72
2022-08-17T03:26:00.297Z,97018.13
2022-08-17T03:28:29.382Z,97012.38
2022-08-17T03:30:57.760Z,97007.22
2022-08-17T03:33:27.588Z,97011.34
2022-08-17T03:35:56.270Z,97015.31
2022-08-17T03:38:24.870Z,97016.56
2022-08-17T03:40:56.389Z,97021.31
2022-08-17T03:43:29.706Z,97019.06
2022-08-17T03:46:27.775Z,97014.13
2022-08-17T03:49:19.430Z,97019.94
2022-08-17T03:52:05.246Z,97014.78
2022-08-17T03:55:05.235Z,97026.56
2022-08-17T03:57:33.927Z,97024.31
2022-08-17T04:00:02.298Z,97018.31
2022-08-17T04:02:34.230Z,97020.41
2022-08-17T04:05:04.275Z,97013.16
2022-08-17T04:07:33.092Z,97013.38
2022-08-17T04:10:01.831Z,97017.94
2022-08-17T04:12:44.169Z,97011.13
2022-08-17T04:15:13.928Z,97011.13
2022-08-17T04:17:44.225Z,97010.50
2022-08-17T04:20:16.441Z,97010.50
2022-08-17T04:22:58.361Z,97016.88
2022-08-17T04:25:28.450Z,97016.88
2022-08-17T04:27:57.991Z,97019.56
2022-08-17T04:30:27.855Z,97023.31
2022-08-17T04:33:05.837Z,97024.13
2022-08-17T04:35:40.317Z,97026.00
2022-08-17T04:38:14.020Z,97028.47
2022-08-17T04:41:00.576Z,97033.84
2022-08-17T04:43:30.975Z,97033.00
2022-08-17T04:46:02.796Z,97034.88
2022-08-17T04:48:37.433Z,97048.31
2022-08-17T04:51:11.628Z,97052.63
2022-08-17T04:53:42.283Z,97051.59
2022-08-17T04:56:17.008Z,97050.97
2022-08-17T04:58:51.773Z,97048.28
2022-08-17T05:01:23.127Z,97050.53
2022-08-17T05:03:53.213Z,97054.91
2022-08-17T05:06:23.635Z,97061.69
2022-08-17T05:08:51.974Z,97065.81
2022-08-17T05:11:20.921Z,97067.06
2022-08-17T05:13:50.711Z,97062.25
2022-08-17T05:16:20.331Z,97068.25
2022-08-17T05:18:49.032Z,97060.34
2022-08-17T05:21:19.077Z,97062.41
2022-08-17T05:23:53.895Z,97059.28
2022-08-17T05:26:26.534Z,97063.81
2022-08-17T05:28:59.471Z,97064.19
2022-08-17T05:31:29.964Z,97062.72
2022-08-17T05:33:58.708Z,97054.00
2022-08-17T05:36:41.592Z,97052.56
2022-08-17T05:39:16.668Z,97046.31
2022-08-17T05:41:49.335Z,97039.22
2022-08-17T05:44:18.346Z,97051.81
2022-08-17T05:46:51.576Z,97049.69
2022-08-17T05:49:27.512Z,97048.59
2022-08-17T05:52:20.030Z,97047.50
2022-08-17T05:55:04.975Z,97045.56
2022-08-17T05:57:57.259Z,97038.28
2022-08-17T06:00:30.665Z,97039.41
2022-08-17T06:03:20.492Z,97033.53
2022-08-17T06:06:05.943Z,97035.72
2022-08-17T06:08:40.730Z,97031.03
2022-08-17T06:11:22.762Z,97026.53
2022-08-17T06:14:18.174Z,97026.16
2022-08-17T06:16:51.302Z,97019.78
2022-08-17T06:19:25.656Z,97017.75
2022-08-17T06:21:56.090Z,97026.47
2022-08-17T06:24:35.410Z,97024.44
2022-08-17T06:27:17.839Z,97026.94
2022-08-17T06:29:55.907Z,97038.34
2022-08-17T06:32:25.119Z,97032.53
2022-08-17T06:34:54.356Z,97033.97
2022-08-17T06:37:56.800Z,97030.84
2022-08-17T06:40:50.809Z,97038.00
2022-08-17T06:43:35.459Z,97047.88
2022-08-17T06:46:11.420Z,97041.53
2022-08-17T06:48:47.207Z,97040.00
2022-08-17T06:51:23.992Z,97042.31
2022-08-17T06:54:00.778Z,97047.78
2022-08-17T06:56:54.723Z,97044.69
2022-08-17T06:59:54.225Z,97055.88
2022-08-17T07:02:52.843Z,97057.41
2022-08-17T07:05:25.523Z,97057.44
2022-08-17T07:08:03.238Z,97057.00
2022-08-17T07:10:40.775Z,97058.63
2022-08-17T07:13:29.496Z,97052.94
2022-08-17T07:16:26.065Z,97063.31
2022-08-17T07:18:56.219Z,97062.75
2022-08-17T07:21:40.932Z,97063.78
2022-08-17T07:24:29.715Z,97055.59
2022-08-17T07:27:18.204Z,97063.44
2022-08-17T07:29:51.730Z,97056.28
2022-08-17T07:32:26.843Z,97059.44
2022-08-17T07:35:10.622Z,97059.38
2022-08-17T07:37:41.308Z,97074.22
2022-08-17T07:40:28.151Z,97075.44
2022-08-17T07:43:23.267Z,97078.84
2022-08-17T07:46:36.763Z,97075.72
2022-08-17T07:49:36.257Z,97082.91
2022-08-17T07:52:48.275Z,97088.69
2022-08-17T07:54:58.109Z,97080.97
2022-08-17T07:57:35.674Z,97086.47
2022-08-17T08:00:24.363Z,97089.28
2022-08-17T08:03:16.647Z,97096.19
2022-08-17T08:06:00.210Z,97098.13
2022-08-17T08:08:36.876Z,97095.72
2022-08-17T08:11:10.028Z,97102.31
2022-08-17T08:13:42.709Z,97108.59
2022-08-17T08:16:26.419Z,97091.19
2022-08-17T08:18:59.008Z,97086.56
2022-08-17T08:21:47.219Z,97096.06
2022-08-17T08:24:50.172Z,97093.81
2022-08-17T08:27:33.546Z,97094.63
2022-08-17T08:30:09.271Z,97091.56
2022-08-17T08:33:04.158Z,97082.47
2022-08-17T08:35:37.275Z,97076.13
2022-08-17T08:38:20.324Z,97078.78
2022-08-17T08:41:05.610Z,97075.34
2022-08-17T08:43:52.243Z,97081.28
2022-08-17T08:46:32.081Z,97083.53
2022-08-17T08:50:01.264Z,97082.00
2022-08-17T08:52:42.215Z,97076.34
2022-08-17T08:55:23.315Z,97079.41
2022-08-17T08:57:58.167Z,97082.25
2022-08-17T09:00:28.198Z,97077.09
2022-08-17T09:03:53.268Z,97084.78
2022-08-17T09:06:39.284Z,97085.13
2022-08-17T09:09:21.436Z,97079.66
2022-08-17T09:12:09.903Z,97079.97
2022-08-17T09:14:46.645Z,97073.63
2022-08-17T09:17:20.528Z,97071.69
2022-08-17T09:19:55.937Z,97070.84
2022-08-17T09:22:33.405Z,97070.25
2022-08-17T09:25:10.397Z,97072.09
2022-08-17T09:27:52.606Z,97079.47
2022-08-17T09:30:23.712Z,97065.13
2022-08-17T09:32:58.916Z,97059.00
2022-08-17T09:35:36.899Z,97046.06
2022-08-17T09:38:20.452Z,97055.19
2022-08-17T09:40:54.178Z,97051.78
2022-08-17T09:43:35.336Z,97049.03
2022-08-17T09:46:11.221Z,97048.78
2022-08-17T09:48:44.979Z,97044.34
2022-08-17T09:51:21.150Z,97050.22
2022-08-17T09:53:50.143Z,97044.81
2022-08-17T09:56:46.183Z,97047.44
2022-08-17T09:59:38.679Z,97049.44
2022-08-17T10:02:40.552Z,97038.16
2022-08-17T10:05:14.831Z,97046.09
2022-08-17T10:07:48.959Z,97048.22
2022-08-17T10:10:24.988Z,97051.66
2022-08-17T10:13:01.153Z,97058.00
2022-08-17T10:15:49.765Z,97050.63
2022-08-17T10:18:39.380Z,97052.44
2022-08-17T10:21:34.160Z,97047.44
2022-08-17T10:24:34.299Z,97045.00
2022-08-17T10:27:10.701Z,97047.44
2022-08-17T10:29:48.992Z,97039.34
2022-08-17T10:32:32.115Z,97042.94
2022-08-17T10:35:34.049Z,97045.88
2022-08-17T10:38:37.512Z,97046.63
2022-08-17T10:41:22.210Z,97041.63
2022-08-17T10:44:38.120Z,97041.97
2022-08-17T10:47:06.700Z,97043.50
2022-08-17T10:49:37.394Z,97050.47
2022-08-17T10:52:50.229Z,97052.72
2022-08-17T10:55:21.449Z,97043.31
2022-08-17T10:57:54.864Z,97042.19
2022-08-17T11:00:59.961Z,97029.69
2022-08-17T11:03:28.676Z,97026.13
2022-08-17T11:06:15.915Z,97019.75
2022-08-17T11:09:24.281Z,97029.66
2022-08-17T11:12:19.029Z,97021.03
2022-08-17T11:15:11.209Z,97014.34
2022-08-17T11:18:01.516Z,97010.88
2022-08-17T11:21:18.558Z,97006.75
2022-08-17T11:24:20.642Z,97004.66
2022-08-17T11:27:12.372Z,97004.00
2022-08-17T11:29:54.206Z,97002.69
2022-08-17T11:32:47.070Z,97002.94
2022-08-17T11:35:34.751Z,97004.06
2022-08-17T11:38:17.756Z,97010.34
2022-08-17T11:41:17.464Z,97014.19
2022-08-17T11:44:04.183Z,97005.88
2022-08-17T11:47:08.789Z,97004.00
2022-08-17T11:50:17.137Z,97004.25
2022-08-17T11:52:49.043Z,97009.72
2022-08-17T11:56:04.783Z,97009.88
2022-08-17T11:58:42.775Z,97012.63
2022-08-17T12:01:16.193Z,97008.72
2022-08-17T12:03:58.860Z,97003.75
2022-08-17T12:06:46.191Z,97016.75
2022-08-17T12:09:20.745Z,97013.97
2022-08-17T12:12:12.158Z,97013.66
2022-08-17T12:15:09.577Z,97019.50
2022-08-17T12:17:41.162Z,97013.75
2022-08-17T12:20:17.178Z,97013.09
2022-08-17T12:22:57.596Z,96999.75
2022-08-17T12:25:35.683Z,96998.75
2022-08-17T12:28:07.606Z,97003.75
2022-08-17T12:30:37.876Z,96998.81
2022-08-17T12:33:25.629Z,96994.53
2022-08-17T12:36:00.638Z,96994.34
2022-08-17T12:38:32.275Z,96994.81
2022-08-17T12:41:24.477Z,96997.09
2022-08-17T12:44:02.803Z,96993.59
2022-08-17T12:46:34.904Z,96990.03
2022-08-17T12:49:15.490Z,96998.66
2022-08-17T12:51:45.933Z,96989.91
2022-08-17T12:54:28.501Z,96997.41
2022-08-17T12:56:57.502Z,96991.19
2022-08-17T12:59:29.706Z,97003.06
2022-08-17T13:01:59.200Z,97003.06
2022-08-17T13:04:29.550Z,97000.66
2022-08-17T13:06:59.933Z,96998.81
2022-08-17T13:09:40.096Z,97008.94
2022-08-17T13:12:09.579Z,96997.72
2022-08-17T13:14:39.412Z,96994.72
2022-08-17T13:17:13.344Z,96990.94
2022-08-17T13:19:51.001Z,96986.09
2022-08-17T13:22:25.309Z,96986.56
2022-08-17T13:24:57.642Z,96983.66
2022-08-17T13:27:29.753Z,96981.31
2022-08-17T13:30:02.604Z,96975.94
2022-08-17T13:32:43.893Z,96975.13
2022-08-17T13:35:50.518Z,96976.94
2022-08-17T13:38:41.098Z,96972.09
2022-08-17T13:41:09.528Z,96967.72
2022-08-17T13:43:50.545Z,96964.44
2022-08-17T13:46:24.351Z,96965.59
2022-08-17T13:49:02.636Z,96961.19
2022-08-17T13:51:45.819Z,96965.13
2022-08-17T13:54:29.215Z,96967.78
2022-08-17T13:57:02.421Z,96958.66
2022-08-17T13:59:54.688Z,96965.00
2022-08-17T14:02:28.772Z,96963.50
2022-08-17T14:07:37.232Z,96956.13
2022-08-17T14:10:12.265Z,96956.47
2022-08-17T14:12:43.518Z,96962.97
2022-08-17T14:15:16.429Z,96954.97
2022-08-17T14:17:46.672Z,96966.38
2022-08-17T14:20:17.131Z,96960.94
2022-08-17T14:22:49.484Z,96962.22
2022-08-17T14:25:21.860Z,96953.44
2022-08-17T14:27:53.594Z,96953.78
2022-08-17T14:30:25.394Z,96952.63
2022-08-17T14:32:56.471Z,96952.63
2022-08-17T14:35:27.853Z,96952.97
2022-08-17T14:37:57.062Z,96946.16
2022-08-17T14:40:26.320Z,96943.75
2022-08-17T14:42:56.646Z,96944.44
2022-08-17T14:45:32.003Z,96946.09
2022-08-17T14:48:05.779Z,96941.56
2022-08-17T14:50:35.369Z,96935.44
2022-08-17T14:53:05.864Z,96943.81
2022-08-17T14:55:34.545Z,96934.44
2022-08-17T14:58:04.014Z,96933.03
2022-08-17T15:00:32.526Z,96925.09
2022-08-17T15:03:03.495Z,96931.50
2022-08-17T15:05:35.245Z,96932.03
2022-08-17T15:08:05.650Z,96928.16
2022-08-17T15:10:34.596Z,96920.28
2022-08-17T15:13:03.156Z,96910.53
2022-08-17T15:15:32.047Z,96911.38
2022-08-17T15:18:01.196Z,96907.69
2022-08-17T15:20:31.707Z,96905.91
2022-08-17T15:23:00.247Z,96899.94
2022-08-17T15:25:32.088Z,96900.13
2022-08-17T15:28:01.330Z,96896.06
2022-08-17T15:30:31.025Z,96891.22
2022-08-17T15:33:01.813Z,96892.00
2022-08-17T15:35:34.699Z,96896.75
2022-08-17T15:38:12.140Z,96904.53
2022-08-17T15:40:45.082Z,96902.94
2022-08-17T15:43:20.119Z,96916.25
2022-08-17T15:46:01.795Z,96912.66
2022-08-17T15:48:42.102Z,96895.75
2022-08-17T15:51:15.863Z,96900.63
2022-08-17T15:53:46.691Z,96899.63
2022-08-17T15:56:15.503Z,96902.06
2022-08-17T15:58:46.649Z,96904.03
2022-08-17T16:01:31.331Z,96914.75
2022-08-17T16:04:07.133Z,96906.31
2022-08-17T16:06:56.106Z,96909.06
2022-08-17T16:09:24.557Z,96907.47
2022-08-17T16:11:55.714Z,96908.91
2022-08-17T16:14:25.266Z,96912.00
2022-08-17T16:17:02.103Z,96913.50
2022-08-17T16:19:30.555Z,96913.66
2022-08-17T16:22:00.787Z,96914.97
2022-08-17T16:24:29.643Z,96911.91
2022-08-17T16:26:58.103Z,96904.13
2022-08-17T16:29:26.652Z,96896.88
2022-08-17T16:31:55.992Z,96892.19
2022-08-17T16:34:24.700Z,96888.81
2022-08-17T16:36:56.138Z,96884.91
2022-08-17T16:39:29.079Z,96901.94
2022-08-17T16:41:58.189Z,96892.88
2022-08-17T16:44:30.973Z,96894.19
2022-08-17T16:47:00.993Z,96898.25
2022-08-17T16:49:36.929Z,96908.50
2022-08-17T16:52:11.294Z,96907.97
2022-08-17T16:54:45.478Z,96908.00
2022-08-17T16:57:17.444Z,96912.69
2022-08-17T16:59:51.444Z,96908.34
2022-08-17T17:02:28.692Z,96913.03
2022-08-17T17:05:05.092Z,96904.72
2022-08-17T17:07:51.035Z,96910.88
2022-08-17T17:10:26.050Z,96908.75
2022-08-17T17:13:01.934Z,96915.34
2022-08-17T17:15:51.775Z,96909.94
2022-08-17T17:18:26.946Z,96907.81
2022-08-17T17:20:58.450Z,96905.34
2022-08-17T17:23:44.875Z,96903.84
2022-08-17T17:26:51.651Z,96903.72
2022-08-17T17:29:48.325Z,96896.38
2022-08-17T17:32:23.072Z,96898.41
2022-08-17T17:34:58.848Z,96881.47
2022-08-17T17:37:33.945Z,96892.69
2022-08-17T17:40:09.608Z,96887.28
2022-08-17T17:42:42.706Z,96888.94
2022-08-17T17:45:20.399Z,96883.50
2022-08-17T17:47:49.629Z,96893.06
2022-08-17T17:50:20.841Z,96894.97
2022-08-17T17:53:00.408Z,96893.81
2022-08-17T17:55:45.616Z,96889.97
2022-08-17T17:58:33.013Z,96890.50
2022-08-17T18:01:21.398Z,96887.47
2022-08-17T18:04:20.681Z,96883.59
2022-08-17T18:07:16.700Z,96884.69
2022-08-17T18:10:19.590Z,96881.63
2022-08-17T18:13:10.385Z,96883.25
2022-08-17T18:15:51.161Z,96881.78
2022-08-17T18:18:37.814Z,96888.59
2022-08-17T18:21:15.842Z,96877.78
2022-08-17T18:23:56.835Z,96881.81
2022-08-17T18:26:43.808Z,96883.91
2022-08-17T18:29:34.452Z,96888.72
2022-08-17T18:32:35.494Z,96886.75
2022-08-17T18:35:31.457Z,96884.47
2022-08-17T18:38:21.953Z,96879.13
2022-08-17T18:41:03.019Z,96878.94
2022-08-17T18:43:44.036Z,96882.34
2022-08-17T18:46:30.099Z,96878.63
2022-08-17T18:49:03.179Z,96871.38
2022-08-17T18:51:42.194Z,96862.75
2022-08-17T18:54:22.449Z,96865.59
2022-08-17T18:56:55.361Z,96869.47
2022-08-17T18:59:33.573Z,96867.69
2022-08-17T19:02:36.098Z,96867.78
2022-08-17T19:05:27.863Z,96861.66
2022-08-17T19:08:20.285Z,96862.28
2022-08-17T19:10:52.021Z,96859.88
2022-08-17T19:13:26.216Z,96857.75
2022-08-17T19:16:13.814Z,96862.75
2022-08-17T19:18:49.463Z,96861.44
2022-08-17T19:21:24.651Z,96859.06
2022-08-17T19:24:00.433Z,96858.06
2022-08-17T19:26:54.856Z,96856.47
2022-08-17T19:29:26.668Z,96852.75
2022-08-17T19:32:00.301Z,96848.41
2022-08-17T19:34:35.464Z,96848.72
2022-08-17T19:37:11.856Z,96841.44
2022-08-17T19:39:50.973Z,96843.16
2022-08-17T19:42:33.958Z,96838.81
2022-08-17T19:45:09.366Z,96840.81
2022-08-17T19:47:57.846Z,96850.13
2022-08-17T19:50:39.131Z,96855.34
2022-08-17T19:53:33.201Z,96863.31
2022-08-17T19:56:22.293Z,96875.94
2022-08-17T19:59:01.309Z,96880.84
2022-08-17T20:01:38.536Z,96887.72
2022-08-17T20:04:15.847Z,96886.94
2022-08-17T20:06:49.366Z,96888.88
2022-08-17T20:09:36.335Z,96902.78
2022-08-17T20:12:10.626Z,96904.97
2022-08-17T20:14:53.912Z,96899.00
2022-08-17T20:17:28.281Z,96894.94
2022-08-17T20:20:07.540Z,96891.16
2022-08-17T20:22:56.094Z,96896.06
2022-08-17T20:25:36.961Z,96893.91
2022-08-17T20:28:24.887Z,96887.91
2022-08-17T20:30:53.917Z,96876.22
2022-08-17T20:33:28.840Z,96881.09
2022-08-17T20:36:21.013Z,96885.72
2022-08-17T20:38:53.603Z,96886.56
2022-08-17T20:41:25.773Z,96893.41
2022-08-17T20:44:06.538Z,96902.91
2022-08-17T20:46:56.895Z,96896.34
2022-08-17T20:49:37.091Z,96899.31
2022-08-17T20:52:09.967Z,96905.84
2022-08-17T20:54:51.804Z,96907.47
2022-08-17T20:57:53.991Z,96912.06
2022-08-17T21:00:46.321Z,96906.06
2022-08-17T21:03:52.278Z,96907.69
2022-08-17T21:06:26.295Z,96913.34
2022-08-17T21:08:59.315Z,96905.19
2022-08-17T21:12:00.028Z,96911.69
2022-08-17T21:14:58.683Z,96905.13
2022-08-17T21:17:46.501Z,96894.22
2022-08-17T21:20:32.513Z,96891.50
2022-08-17T21:23:28.469Z,96893.63
2022-08-17T21:26:21.101Z,96902.84
2022-08-17T21:29:29.558Z,96899.03
2022-08-17T21:32:24.155Z,96891.94
2022-08-17T21:35:28.618Z,96882.91
2022-08-17T21:38:05.166Z,96884.50
2022-08-17T21:40:35.483Z,96881.53
2022-08-17T21:43:23.404Z,96876.06
2022-08-17T21:46:24.429Z,96867.06
2022-08-17T21:48:57.261Z,96860.81
2022-08-17T21:51:28.183Z,96858.34
2022-08-17T21:54:00.406Z,96854.84
2022-08-17T21:56:36.580Z,96849.09
2022-08-17T21:59:08.068Z,96860.81
2022-08-17T22:01:38.641Z,96867.03
2022-08-17T22:04:21.702Z,96870.00
2022-08-17T22:06:57.063Z,96868.13
2022-08-17T22:09:31.471Z,96868.38
2022-08-17T22:12:06.262Z,96872.44
2022-08-17T22:14:51.477Z,96877.06
2022-08-17T22:17:25.847Z,96884.09
2022-08-17T22:19:59.310Z,96877.84
2022-08-17T22:22:58.154Z,96888.97
2022-08-17T22:25:29.604Z,96890.56
2022-08-17T22:28:01.161Z,96904.41
2022-08-17T22:30:35.985Z,96918.50
2022-08-17T22:33:36.913Z,96919.81
2022-08-17T22:36:29.151Z,96912.09
2022-08-17T22:38:59.242Z,96908.84
2022-08-17T22:41:53.975Z,96899.63
2022-08-17T22:44:28.070Z,96897.25
2022-08-17T22:47:20.412Z,96875.53
2022-08-17T22:49:57.769Z,96883.34
2022-08-17T22:52:57.023Z,96896.06
2022-08-17T22:55:44.137Z,96897.91
2022-08-17T22:58:31.714Z,96900.00
2022-08-17T23:01:25.572Z,96905.66
2022-08-17T23:03:55.876Z,96904.28
2022-08-17T23:06:24.798Z,96893.38
2022-08-17T23:08:56.628Z,96892.25
2022-08-17T23:11:42.994Z,96904.72
2022-08-17T23:14:19.139Z,96906.56
2022-08-17T23:16:48.262Z,96905.94
2022-08-17T23:19:21.611Z,96915.91
2022-08-17T23:21:55.343Z,96904.97
2022-08-17T23:24:27.795Z,96900.59
2022-08-17T23:26:58.142Z,96897.34
2022-08-17T23:29:29.445Z,96906.50
2022-08-17T23:31:59.999Z,96908.94
2022-08-17T23:34:29.825Z,96901.84
2022-08-17T23:36:58.328Z,96906.75
2022-08-17T23:39:28.466Z,96902.88
2022-08-17T23:41:57.932Z,96899.38
2022-08-17T23:44:27.241Z,96891.75
2022-08-17T23:46:56.087Z,96895.50
2022-08-17T23:49:25.194Z,96898.75
2022-08-17T23:51:55.260Z,96898.19
2022-08-17T23:54:28.355Z,96913.88
2022-08-17T23:56:56.739Z,96921.97
2022-08-17T23:59:27.456Z,96921.53
